Weather at San Carlos Airport

Public forecast

Using degrees Fahrenheit for public forecast. Weather courtesy of forecast.io.

Current aviation weather report (METAR) for San Carlos Airport

Retrieved 2022/07/01 14:56 UTC (2 hours ago):

KSQL 011456Z 00000KT 10SM SCT008 15/10 A3005

Closest aviation forecast (TAF) to San Carlos Airport

Forecast is more than 6 hours old.

Closest forecast is San Francisco International Airport, 8.8 nm (16.2 km) NW. Retrieved 2022/07/01 06:22 UTC (10 hours ago):

TAF KSFO 010520Z 0106/0212 27013KT P6SM OVC008 FM011700 28013KT P6SM BKN015 FM012000 28018G25KT P6SM SCT015 FM020400 27018KT P6SM BKN012 FM020600 27010KT P6SM OVC008